Time;durP1;ratioP1;P1;durP2;ratioP2;P2;SDS_P1;SDS_P2;PMS_P1;PMS_P2;Temp;Humidity;BMP_temperature;BMP_pressure;BME280_temperature;BME280_humidity;BME280_pressure;Samples;Min_cycle;Max_cycle;Signal;HPM_P1;HPM_P2
2022/07/16 00:01:23;;;;;;;5.10;2.07;;;;;;;;;;5035682;28;20956;-75
2022/07/16 00:04:07;;;;;;;2.67;1.90;;;;;;;;;;5035629;28;20497;-75
2022/07/16 00:06:32;;;;;;;6.30;2.10;;;;;;;;;;5035978;28;20503;-75
2022/07/16 00:08:58;;;;;;;13.67;2.67;;;;;;;;;;5035744;28;20529;-75
2022/07/16 00:11:25;;;;;;;3.10;1.73;;;;;;;;;;5035476;28;20420;-75
2022/07/16 00:13:51;;;;;;;3.80;2.00;;;;;;;;;;5035409;28;20444;-75
2022/07/16 00:16:17;;;;;;;3.53;2.17;;;;;;;;;;5035689;28;20407;-75
2022/07/16 00:21:27;;;;;;;8.13;2.03;;;;;;;;;;5035843;28;20416;-76
2022/07/16 00:23:53;;;;;;;5.63;1.63;;;;;;;;;;5034944;28;20496;-75
2022/07/16 00:26:20;;;;;;;7.40;2.83;;;;;;;;;;5035506;28;20417;-75
2022/07/16 00:28:46;;;;;;;3.00;2.30;;;;;;;;;;5035506;28;20479;-75
2022/07/16 00:31:12;;;;;;;4.43;1.57;;;;;;;;;;5035354;28;20840;-76
2022/07/16 00:33:38;;;;;;;2.70;1.97;;;;;;;;;;5034846;28;20482;-75
2022/07/16 00:36:04;;;;;;;3.30;2.00;;;;;;;;;;5034034;28;20918;-75
2022/07/16 00:38:31;;;;;;;3.20;2.17;;;;;;;;;;5035061;28;20417;-75
2022/07/16 00:40:57;;;;;;;3.53;2.13;;;;;;;;;;5035132;28;20415;-75
2022/07/16 00:43:23;;;;;;;3.13;1.83;;;;;;;;;;5034559;28;20467;-75
2022/07/16 00:45:49;;;;;;;8.33;1.83;;;;;;;;;;5035110;28;20434;-75
2022/07/16 00:48:15;;;;;;;4.90;2.40;;;;;;;;;;5035134;28;20419;-76
2022/07/16 00:50:41;;;;;;;4.07;2.00;;;;;;;;;;5034930;28;20413;-75
2022/07/16 00:53:10;;;;;;;6.17;2.43;;;;;;;;;;5034078;28;20437;-75
2022/07/16 00:55:37;;;;;;;8.57;2.90;;;;;;;;;;5034832;28;20811;-75
2022/07/16 00:58:03;;;;;;;6.53;3.13;;;;;;;;;;5034750;28;20880;-76
2022/07/16 01:00:29;;;;;;;2.27;2.00;;;;;;;;;;5034809;28;20435;-75
2022/07/16 01:02:57;;;;;;;3.10;1.70;;;;;;;;;;5034294;28;20804;-76
2022/07/16 01:05:23;;;;;;;3.43;2.07;;;;;;;;;;5033294;28;20416;-75
2022/07/16 01:07:49;;;;;;;4.33;1.97;;;;;;;;;;5034608;28;20460;-75
2022/07/16 01:10:18;;;;;;;3.23;1.83;;;;;;;;;;5034509;28;20870;-75
2022/07/16 01:12:44;;;;;;;4.00;1.97;;;;;;;;;;5034091;28;20444;-75
2022/07/16 01:15:10;;;;;;;6.70;2.03;;;;;;;;;;5033299;28;20777;-75
2022/07/16 01:17:36;;;;;;;3.83;2.40;;;;;;;;;;5034188;28;20499;-75
2022/07/16 01:20:03;;;;;;;3.50;1.80;;;;;;;;;;5034378;28;20489;-75
2022/07/16 01:22:29;;;;;;;4.20;2.60;;;;;;;;;;5033769;28;20413;-76
2022/07/16 01:24:54;;;;;;;2.50;1.97;;;;;;;;;;5034144;28;20556;-75
2022/07/16 01:27:21;;;;;;;3.43;2.00;;;;;;;;;;5034142;28;20381;-75
2022/07/16 01:29:47;;;;;;;9.53;2.97;;;;;;;;;;5034044;28;20424;-75
2022/07/16 01:32:13;;;;;;;2.37;2.17;;;;;;;;;;5034160;28;20749;-75
2022/07/16 01:34:40;;;;;;;5.90;2.50;;;;;;;;;;5033813;28;20730;-75
2022/07/16 01:37:07;;;;;;;7.07;3.07;;;;;;;;;;5033988;28;20407;-75
2022/07/16 01:39:34;;;;;;;3.50;2.00;;;;;;;;;;5033972;28;20499;-75
2022/07/16 01:42:02;;;;;;;4.97;1.93;;;;;;;;;;5034034;28;20507;-75
2022/07/16 01:44:28;;;;;;;3.40;2.53;;;;;;;;;;5033459;28;20451;-75
2022/07/16 01:46:55;;;;;;;4.70;2.23;;;;;;;;;;5033633;28;20411;-75
2022/07/16 01:49:22;;;;;;;4.50;2.67;;;;;;;;;;5033536;28;20407;-75
2022/07/16 01:51:48;;;;;;;4.43;2.17;;;;;;;;;;5033403;28;20465;-75
2022/07/16 01:54:14;;;;;;;3.60;2.50;;;;;;;;;;5033453;28;20442;-75
2022/07/16 01:56:40;;;;;;;5.70;2.53;;;;;;;;;;5033732;28;20418;-75
2022/07/16 01:59:06;;;;;;;3.27;2.00;;;;;;;;;;5033730;28;20423;-76
2022/07/16 02:01:32;;;;;;;5.33;2.37;;;;;;;;;;5033480;28;20876;-75
2022/07/16 02:03:59;;;;;;;7.00;2.57;;;;;;;;;;5032423;28;20465;-75
2022/07/16 02:06:25;;;;;;;4.37;3.00;;;;;;;;;;5033324;28;20415;-75
2022/07/16 02:08:51;;;;;;;6.30;3.13;;;;;;;;;;5033393;28;20459;-76
2022/07/16 02:11:17;;;;;;;6.47;2.50;;;;;;;;;;5033506;28;20822;-75
2022/07/16 02:13:43;;;;;;;4.50;1.93;;;;;;;;;;5032878;28;20442;-76
2022/07/16 02:16:10;;;;;;;7.77;2.60;;;;;;;;;;5033261;28;20423;-76
2022/07/16 02:18:36;;;;;;;5.00;2.90;;;;;;;;;;5033306;28;20416;-75
2022/07/16 02:21:02;;;;;;;5.50;2.87;;;;;;;;;;5033319;28;20469;-75
2022/07/16 02:23:28;;;;;;;4.27;2.70;;;;;;;;;;5032740;28;20461;-75
2022/07/16 02:25:54;;;;;;;5.07;2.93;;;;;;;;;;5033088;28;20413;-76
2022/07/16 02:28:20;;;;;;;8.37;3.07;;;;;;;;;;5033122;28;20408;-75
2022/07/16 02:30:48;;;;;;;6.70;2.47;;;;;;;;;;5033121;28;20436;-75
2022/07/16 02:33:18;;;;;;;3.70;2.30;;;;;;;;;;5032734;28;20458;-75
2022/07/16 02:35:45;;;;;;;5.33;2.70;;;;;;;;;;5033027;28;20416;-75
2022/07/16 02:38:12;;;;;;;5.63;2.73;;;;;;;;;;5032927;28;20416;-75
2022/07/16 02:40:38;;;;;;;4.97;2.40;;;;;;;;;;5033064;28;20503;-75
2022/07/16 02:43:05;;;;;;;4.30;2.23;;;;;;;;;;5032454;28;20501;-75
2022/07/16 02:45:32;;;;;;;5.30;2.33;;;;;;;;;;5032713;28;20454;-75
2022/07/16 02:47:58;;;;;;;2.83;2.43;;;;;;;;;;5032719;28;20506;-75
2022/07/16 02:50:25;;;;;;;4.50;2.30;;;;;;;;;;5032624;28;20924;-76
2022/07/16 02:52:51;;;;;;;3.53;2.17;;;;;;;;;;5031121;28;20520;-75
2022/07/16 02:55:17;;;;;;;4.93;2.87;;;;;;;;;;5032568;28;20440;-77
2022/07/16 02:57:43;;;;;;;6.13;2.53;;;;;;;;;;5032817;28;20521;-75
2022/07/16 03:00:11;;;;;;;4.50;2.23;;;;;;;;;;5032572;28;20410;-75
2022/07/16 03:02:37;;;;;;;4.20;2.23;;;;;;;;;;5032221;28;20408;-75
2022/07/16 03:05:03;;;;;;;4.30;2.60;;;;;;;;;;5034413;28;20974;-75
2022/07/16 03:07:29;;;;;;;4.37;2.50;;;;;;;;;;5032631;28;20408;-76
2022/07/16 03:09:55;;;;;;;3.73;2.60;;;;;;;;;;5032534;28;20520;-76
2022/07/16 03:12:21;;;;;;;3.47;2.93;;;;;;;;;;5032091;28;20404;-76
2022/07/16 03:14:47;;;;;;;4.60;2.53;;;;;;;;;;5032492;28;20409;-76
2022/07/16 03:17:14;;;;;;;3.00;2.70;;;;;;;;;;5036258;28;20439;-76
2022/07/16 03:19:40;;;;;;;3.47;2.60;;;;;;;;;;5036574;28;20413;-76
2022/07/16 03:22:06;;;;;;;4.00;2.57;;;;;;;;;;5036361;28;20414;-77
2022/07/16 03:24:32;;;;;;;3.97;2.83;;;;;;;;;;5036097;28;20521;-76
2022/07/16 03:26:58;;;;;;;6.40;2.50;;;;;;;;;;5036540;28;20437;-77
2022/07/16 03:29:24;;;;;;;5.33;2.60;;;;;;;;;;5036537;28;20413;-74
2022/07/16 03:31:51;;;;;;;2.50;2.30;;;;;;;;;;5036410;28;20476;-74
2022/07/16 03:34:17;;;;;;;3.50;2.73;;;;;;;;;;5035976;28;20425;-74
2022/07/16 03:36:43;;;;;;;6.47;2.17;;;;;;;;;;5036433;28;20827;-74
2022/07/16 03:39:08;;;;;;;4.57;2.40;;;;;;;;;;5036251;28;20388;-74
2022/07/16 03:41:37;;;;;;;5.13;3.27;;;;;;;;;;5036455;28;20420;-74
2022/07/16 03:44:05;;;;;;;4.70;2.50;;;;;;;;;;5035858;28;20459;-74
2022/07/16 03:46:31;;;;;;;2.57;2.37;;;;;;;;;;5036083;28;20406;-75
2022/07/16 03:48:58;;;;;;;16.57;3.00;;;;;;;;;;5036080;28;20418;-76
2022/07/16 03:51:24;;;;;;;6.80;2.97;;;;;;;;;;5036098;28;20417;-75
2022/07/16 03:53:50;;;;;;;4.70;2.63;;;;;;;;;;5035627;28;20764;-75
2022/07/16 03:56:16;;;;;;;5.73;2.67;;;;;;;;;;5035758;28;20488;-75
2022/07/16 03:58:42;;;;;;;4.53;2.80;;;;;;;;;;5035804;28;20504;-74
2022/07/16 04:01:08;;;;;;;4.90;3.07;;;;;;;;;;5035745;28;20418;-74
2022/07/16 04:03:35;;;;;;;4.53;2.77;;;;;;;;;;5035310;28;20519;-74
2022/07/16 04:06:02;;;;;;;4.00;2.50;;;;;;;;;;5035817;28;20417;-74
2022/07/16 04:08:28;;;;;;;6.20;2.90;;;;;;;;;;5035518;28;20405;-74
2022/07/16 04:10:54;;;;;;;7.20;3.63;;;;;;;;;;5035595;28;20395;-75
2022/07/16 04:13:20;;;;;;;5.23;3.17;;;;;;;;;;5035342;28;20441;-74
2022/07/16 04:15:46;;;;;;;5.83;2.60;;;;;;;;;;5035399;28;20519;-75
2022/07/16 04:18:12;;;;;;;3.93;2.60;;;;;;;;;;5035661;28;20445;-75
2022/07/16 04:20:38;;;;;;;4.83;3.00;;;;;;;;;;5035121;28;20496;-75
2022/07/16 04:23:04;;;;;;;6.17;3.13;;;;;;;;;;5035035;28;20437;-74
2022/07/16 04:25:30;;;;;;;7.80;3.17;;;;;;;;;;5035267;28;20467;-74
2022/07/16 04:27:56;;;;;;;3.57;2.93;;;;;;;;;;5034427;28;20388;-75
2022/07/16 04:30:22;;;;;;;5.83;2.60;;;;;;;;;;5035570;28;20909;-75
2022/07/16 04:32:48;;;;;;;3.27;2.50;;;;;;;;;;5034905;28;20407;-75
2022/07/16 04:35:15;;;;;;;8.33;2.97;;;;;;;;;;5035301;28;20390;-75
2022/07/16 04:37:41;;;;;;;4.03;2.50;;;;;;;;;;5035127;28;20775;-74
2022/07/16 04:40:08;;;;;;;4.00;2.80;;;;;;;;;;5035344;28;20437;-75
2022/07/16 04:42:37;;;;;;;5.33;2.90;;;;;;;;;;5034804;28;20428;-77
2022/07/16 04:45:03;;;;;;;7.30;2.70;;;;;;;;;;5034802;28;20832;-75
2022/07/16 04:47:29;;;;;;;2.90;2.37;;;;;;;;;;5035091;28;20851;-75
2022/07/16 04:49:55;;;;;;;3.00;2.47;;;;;;;;;;5034965;28;20442;-74
2022/07/16 04:52:21;;;;;;;4.17;2.90;;;;;;;;;;5034523;28;20441;-75
2022/07/16 04:54:47;;;;;;;3.87;3.20;;;;;;;;;;5034742;28;20409;-75
2022/07/16 04:57:13;;;;;;;3.40;2.63;;;;;;;;;;5034857;28;21023;-74
2022/07/16 04:59:39;;;;;;;5.20;2.87;;;;;;;;;;5034788;28;20388;-75
2022/07/16 05:04:50;;;;;;;3.77;3.10;;;;;;;;;;5034631;28;20444;-75
2022/07/16 05:07:16;;;;;;;4.00;3.23;;;;;;;;;;5034617;28;20388;-74
2022/07/16 05:09:42;;;;;;;3.97;2.43;;;;;;;;;;5034483;28;20528;-75
2022/07/16 05:12:07;;;;;;;7.60;3.00;;;;;;;;;;5034490;28;20751;-74
2022/07/16 05:14:33;;;;;;;5.70;2.70;;;;;;;;;;5034198;28;20445;-76
2022/07/16 05:16:59;;;;;;;4.83;2.80;;;;;;;;;;5034457;28;20760;-74
2022/07/16 05:19:25;;;;;;;3.77;2.90;;;;;;;;;;5034567;28;20417;-74
2022/07/16 05:21:51;;;;;;;4.30;2.33;;;;;;;;;;5034356;28;20445;-76
2022/07/16 05:24:17;;;;;;;6.70;3.10;;;;;;;;;;5034004;28;20469;-75
2022/07/16 05:26:43;;;;;;;2.53;2.30;;;;;;;;;;5034389;28;20410;-74
2022/07/16 05:29:09;;;;;;;7.07;3.27;;;;;;;;;;5034204;28;20390;-74
2022/07/16 05:31:35;;;;;;;5.50;3.10;;;;;;;;;;5034214;28;20414;-74
2022/07/16 05:34:01;;;;;;;4.67;2.70;;;;;;;;;;5033647;28;20408;-75
2022/07/16 05:36:27;;;;;;;4.33;2.93;;;;;;;;;;5034093;28;20406;-73
2022/07/16 05:38:53;;;;;;;5.20;3.50;;;;;;;;;;5033836;28;20500;-74
2022/07/16 05:41:19;;;;;;;7.30;3.23;;;;;;;;;;5033947;28;20502;-74
2022/07/16 05:43:45;;;;;;;3.80;2.50;;;;;;;;;;5033519;28;20484;-74
2022/07/16 05:46:11;;;;;;;7.17;2.83;;;;;;;;;;5033908;28;20394;-74
2022/07/16 05:48:37;;;;;;;5.20;2.87;;;;;;;;;;5033904;28;20413;-75
2022/07/16 05:51:03;;;;;;;4.03;2.90;;;;;;;;;;5033652;28;20758;-75
2022/07/16 05:53:29;;;;;;;6.47;3.07;;;;;;;;;;5033338;28;20502;-75
2022/07/16 05:55:55;;;;;;;8.87;3.00;;;;;;;;;;5033758;28;20451;-76
2022/07/16 05:58:21;;;;;;;4.50;2.60;;;;;;;;;;5033676;28;20818;-76
2022/07/16 06:00:47;;;;;;;4.93;3.73;;;;;;;;;;5033545;28;20428;-76
2022/07/16 06:03:13;;;;;;;5.87;2.53;;;;;;;;;;5032963;28;20424;-75
2022/07/16 06:05:39;;;;;;;3.40;2.40;;;;;;;;;;5033220;28;20384;-74
2022/07/16 06:08:05;;;;;;;4.10;2.80;;;;;;;;;;5033451;28;20770;-74
2022/07/16 06:10:31;;;;;;;3.70;2.90;;;;;;;;;;5033479;28;20396;-75
2022/07/16 06:12:58;;;;;;;6.07;2.63;;;;;;;;;;5033191;28;20480;-75
2022/07/16 06:15:24;;;;;;;5.03;2.40;;;;;;;;;;5035151;28;20415;-74
2022/07/16 06:17:50;;;;;;;6.70;3.40;;;;;;;;;;5033506;28;20534;-75
2022/07/16 06:20:16;;;;;;;6.23;2.93;;;;;;;;;;5032056;28;20438;-74
2022/07/16 06:22:42;;;;;;;6.50;2.67;;;;;;;;;;5033290;28;20914;-74
2022/07/16 06:25:08;;;;;;;4.50;2.80;;;;;;;;;;5033378;28;20559;-76
2022/07/16 06:27:34;;;;;;;6.37;2.57;;;;;;;;;;5033187;28;20417;-75
2022/07/16 06:30:03;;;;;;;8.77;2.87;;;;;;;;;;5034515;28;20388;-74
2022/07/16 06:32:30;;;;;;;7.87;2.40;;;;;;;;;;5032657;28;20411;-77
2022/07/16 06:34:56;;;;;;;4.27;2.10;;;;;;;;;;5033420;28;20396;-76
2022/07/16 06:37:22;;;;;;;11.00;2.70;;;;;;;;;;5032927;28;21003;-75
2022/07/16 06:39:48;;;;;;;6.63;2.80;;;;;;;;;;5033099;28;20411;-76
2022/07/16 06:42:14;;;;;;;6.30;2.13;;;;;;;;;;5032794;28;20418;-76
2022/07/16 06:44:40;;;;;;;9.43;2.50;;;;;;;;;;5032779;28;20471;-76
2022/07/16 06:47:06;;;;;;;7.03;3.03;;;;;;;;;;5033011;28;20424;-76
2022/07/16 06:49:32;;;;;;;6.73;2.43;;;;;;;;;;5032750;28;20389;-76
2022/07/16 06:51:58;;;;;;;6.13;2.93;;;;;;;;;;5032355;28;20428;-76
2022/07/16 06:54:24;;;;;;;6.40;2.30;;;;;;;;;;5032482;28;20439;-76
2022/07/16 06:56:50;;;;;;;10.23;2.37;;;;;;;;;;5032777;28;20458;-76
2022/07/16 06:59:16;;;;;;;4.00;2.00;;;;;;;;;;5032758;28;20419;-76
2022/07/16 07:01:42;;;;;;;8.53;3.47;;;;;;;;;;5032594;28;20445;-76
2022/07/16 07:04:08;;;;;;;5.90;3.10;;;;;;;;;;5032203;28;20499;-76
2022/07/16 07:06:34;;;;;;;4.63;3.20;;;;;;;;;;5032658;28;20413;-76
2022/07/16 07:09:00;;;;;;;7.73;2.80;;;;;;;;;;5032583;28;20495;-76
2022/07/16 07:11:26;;;;;;;6.10;2.67;;;;;;;;;;5032710;28;20449;-76
2022/07/16 07:13:52;;;;;;;5.83;4.30;;;;;;;;;;5032075;28;20784;-76
2022/07/16 07:16:19;;;;;;;4.57;3.10;;;;;;;;;;5032727;28;20410;-76
2022/07/16 07:18:44;;;;;;;8.27;4.53;;;;;;;;;;5032672;28;20389;-76
2022/07/16 07:21:11;;;;;;;5.50;3.10;;;;;;;;;;5032582;28;20514;-76
2022/07/16 07:23:37;;;;;;;9.30;3.47;;;;;;;;;;5032321;28;20461;-77
2022/07/16 07:26:03;;;;;;;7.53;3.67;;;;;;;;;;5032482;28;20442;-76
2022/07/16 07:28:29;;;;;;;8.23;4.40;;;;;;;;;;5032939;28;20411;-76
2022/07/16 07:30:56;;;;;;;5.40;3.33;;;;;;;;;;5032632;28;20456;-76
2022/07/16 07:33:22;;;;;;;5.60;3.90;;;;;;;;;;5032285;28;20452;-76
2022/07/16 07:35:49;;;;;;;4.13;3.40;;;;;;;;;;5032513;28;20442;-76
2022/07/16 07:38:15;;;;;;;6.33;4.30;;;;;;;;;;5032162;28;20413;-76
2022/07/16 07:40:41;;;;;;;6.53;3.87;;;;;;;;;;5032345;28;20794;-76
2022/07/16 07:43:07;;;;;;;6.90;4.33;;;;;;;;;;5030579;28;20425;-76
2022/07/16 07:45:33;;;;;;;11.00;4.83;;;;;;;;;;5032213;28;20389;-76
2022/07/16 07:47:59;;;;;;;6.20;4.00;;;;;;;;;;5032279;28;20411;-77
2022/07/16 07:50:25;;;;;;;5.83;4.47;;;;;;;;;;5032234;28;20467;-76
2022/07/16 07:52:52;;;;;;;7.93;4.10;;;;;;;;;;5032003;28;20433;-76
2022/07/16 07:55:18;;;;;;;6.67;4.33;;;;;;;;;;5032282;28;20473;-76
2022/07/16 07:57:44;;;;;;;8.47;4.60;;;;;;;;;;5032093;28;20424;-76
2022/07/16 08:00:10;;;;;;;7.57;5.23;;;;;;;;;;5032049;28;20430;-77
2022/07/16 08:02:37;;;;;;;15.40;4.90;;;;;;;;;;5032701;28;20425;-76
2022/07/16 08:05:03;;;;;;;9.83;4.80;;;;;;;;;;5035821;28;20528;-76
2022/07/16 08:07:29;;;;;;;9.70;4.23;;;;;;;;;;5035755;28;20434;-76
2022/07/16 08:09:55;;;;;;;11.03;5.27;;;;;;;;;;5035664;28;20437;-76
2022/07/16 08:12:21;;;;;;;8.90;4.73;;;;;;;;;;5035260;28;20424;-77
2022/07/16 08:14:47;;;;;;;12.90;4.43;;;;;;;;;;5035564;28;20421;-76
2022/07/16 08:17:13;;;;;;;10.50;4.80;;;;;;;;;;5035820;28;20733;-77
2022/07/16 08:19:39;;;;;;;8.97;5.07;;;;;;;;;;5035525;28;20392;-76
2022/07/16 08:22:05;;;;;;;5.23;4.60;;;;;;;;;;5035490;28;20418;-76
2022/07/16 08:27:16;;;;;;;8.40;4.00;;;;;;;;;;5035881;28;20924;-76
2022/07/16 08:29:42;;;;;;;12.33;4.63;;;;;;;;;;5035349;28;20408;-76
2022/07/16 08:32:08;;;;;;;6.30;4.57;;;;;;;;;;5035569;28;20727;-77
2022/07/16 08:34:34;;;;;;;4.90;4.10;;;;;;;;;;5034522;28;20433;-75
2022/07/16 08:37:01;;;;;;;7.97;4.43;;;;;;;;;;5035246;28;20484;-77
2022/07/16 08:39:27;;;;;;;6.20;4.77;;;;;;;;;;5035129;28;20436;-79
2022/07/16 08:41:53;;;;;;;5.93;3.90;;;;;;;;;;5034963;28;20433;-77
2022/07/16 08:44:19;;;;;;;5.30;4.03;;;;;;;;;;5034286;28;20522;-78
2022/07/16 08:46:46;;;;;;;3.73;3.10;;;;;;;;;;5045761;28;20502;-78
2022/07/16 08:49:12;;;;;;;5.30;3.67;;;;;;;;;;5054402;28;21019;-78
2022/07/16 08:51:39;;;;;;;5.60;3.40;;;;;;;;;;5054425;28;20890;-77
2022/07/16 08:54:16;;;;;;;3.50;3.20;;;;;;;;;;5053472;28;20441;-77
2022/07/16 08:56:45;;;;;;;5.37;3.63;;;;;;;;;;5054361;28;20408;-78
2022/07/16 08:59:13;;;;;;;5.53;4.70;;;;;;;;;;5054249;28;20835;-78
2022/07/16 09:01:40;;;;;;;3.90;3.20;;;;;;;;;;5052999;28;20764;-79
2022/07/16 09:04:06;;;;;;;9.13;3.63;;;;;;;;;;5054164;28;20559;-78
2022/07/16 09:06:32;;;;;;;5.80;2.90;;;;;;;;;;5054398;28;20483;-80
2022/07/16 09:08:58;;;;;;;4.83;3.20;;;;;;;;;;5054334;28;20431;-78
2022/07/16 09:11:26;;;;;;;7.23;2.57;;;;;;;;;;5054654;28;20409;-77
2022/07/16 09:14:07;;;;;;;5.37;2.77;;;;;;;;;;5053927;28;20435;-79
2022/07/16 09:16:38;;;;;;;4.33;2.33;;;;;;;;;;5054476;28;20405;-79
2022/07/16 09:19:07;;;;;;;3.17;2.13;;;;;;;;;;5054465;28;20515;-78
2022/07/16 09:21:33;;;;;;;3.47;2.57;;;;;;;;;;5054644;28;20410;-79
2022/07/16 09:23:59;;;;;;;3.60;2.60;;;;;;;;;;5055291;28;20538;-78
2022/07/16 09:26:27;;;;;;;6.13;2.90;;;;;;;;;;5054382;28;20465;-80
2022/07/16 09:28:53;;;;;;;4.77;2.97;;;;;;;;;;5054217;28;20375;-78
2022/07/16 09:31:39;;;;;;;3.87;2.87;;;;;;;;;;5054280;28;20772;-77
2022/07/16 09:34:05;;;;;;;7.90;2.20;;;;;;;;;;5053749;28;20421;-78
2022/07/16 09:36:32;;;;;;;2.97;2.30;;;;;;;;;;5054144;28;20412;-78
2022/07/16 09:38:58;;;;;;;4.70;2.10;;;;;;;;;;5054006;28;20527;-78
2022/07/16 09:41:24;;;;;;;5.53;1.77;;;;;;;;;;5053970;28;20503;-78
2022/07/16 09:43:50;;;;;;;3.10;1.90;;;;;;;;;;5053533;28;20547;-78
2022/07/16 09:46:21;;;;;;;2.20;2.00;;;;;;;;;;5053910;28;20420;-79
2022/07/16 09:48:47;;;;;;;3.23;1.50;;;;;;;;;;5053780;28;20512;-79
2022/07/16 09:51:15;;;;;;;3.50;1.67;;;;;;;;;;5052484;28;20482;-78
2022/07/16 09:53:43;;;;;;;3.57;1.63;;;;;;;;;;5053569;28;20428;-78
2022/07/16 09:56:13;;;;;;;3.13;1.50;;;;;;;;;;5053928;28;20756;-79
2022/07/16 09:58:39;;;;;;;4.50;2.00;;;;;;;;;;5053568;28;20417;-78
2022/07/16 10:01:06;;;;;;;1.67;1.20;;;;;;;;;;5053418;28;20409;-79
2022/07/16 10:03:32;;;;;;;1.90;1.50;;;;;;;;;;5053139;28;20555;-77
2022/07/16 10:05:58;;;;;;;5.90;1.40;;;;;;;;;;5054031;28;20401;-79
2022/07/16 10:08:25;;;;;;;2.50;1.20;;;;;;;;;;5052386;28;20401;-79
2022/07/16 10:10:51;;;;;;;2.77;1.33;;;;;;;;;;5053437;28;20455;-77
2022/07/16 10:13:19;;;;;;;1.40;1.10;;;;;;;;;;5051559;28;20429;-78
2022/07/16 10:15:46;;;;;;;3.17;1.13;;;;;;;;;;5053314;28;20496;-79
2022/07/16 10:18:31;;;;;;;3.57;1.20;;;;;;;;;;5053648;28;20375;-79
2022/07/16 10:21:17;;;;;;;1.17;1.00;;;;;;;;;;5053399;28;20400;-80
2022/07/16 10:23:47;;;;;;;1.47;1.10;;;;;;;;;;5052655;28;20460;-80
2022/07/16 10:26:15;;;;;;;3.47;1.27;;;;;;;;;;5052776;28;20387;-76
2022/07/16 10:28:44;;;;;;;1.20;1.10;;;;;;;;;;5052084;28;20767;-79
2022/07/16 10:31:29;;;;;;;2.40;1.10;;;;;;;;;;5052969;28;20401;-80
2022/07/16 10:34:13;;;;;;;2.10;1.20;;;;;;;;;;5052873;28;20464;-80
2022/07/16 10:36:50;;;;;;;2.03;0.90;;;;;;;;;;5051913;28;20745;-78
2022/07/16 10:39:16;;;;;;;2.23;1.30;;;;;;;;;;5052981;28;20446;-78
2022/07/16 10:41:50;;;;;;;1.00;0.87;;;;;;;;;;5053159;28;20408;-78
2022/07/16 10:44:16;;;;;;;1.30;1.10;;;;;;;;;;5052632;28;20501;-80
2022/07/16 10:46:52;;;;;;;1.57;1.17;;;;;;;;;;5053038;28;20776;-79
2022/07/16 10:49:18;;;;;;;1.93;1.27;;;;;;;;;;5052865;28;20897;-78
2022/07/16 10:51:55;;;;;;;2.00;1.20;;;;;;;;;;5052547;28;20408;-78
2022/07/16 10:54:21;;;;;;;1.97;1.20;;;;;;;;;;5052026;28;20534;-79
2022/07/16 10:56:52;;;;;;;3.47;1.30;;;;;;;;;;5052706;28;20534;-76
2022/07/16 10:59:19;;;;;;;1.57;1.07;;;;;;;;;;5043192;28;20425;-77
2022/07/16 11:01:47;;;;;;;3.07;1.20;;;;;;;;;;5047579;28;20968;-77
2022/07/16 11:04:13;;;;;;;2.60;1.00;;;;;;;;;;5032609;28;20461;-76
2022/07/16 11:06:40;;;;;;;2.33;1.20;;;;;;;;;;5032711;28;20424;-75
2022/07/16 11:09:07;;;;;;;2.40;1.20;;;;;;;;;;5033180;28;20425;-76
2022/07/16 11:11:40;;;;;;;3.00;1.10;;;;;;;;;;5033608;28;20460;-76
2022/07/16 11:14:06;;;;;;;2.83;1.03;;;;;;;;;;5038820;28;20445;-77
2022/07/16 11:16:33;;;;;;;2.57;1.13;;;;;;;;;;5032834;28;20424;-77
2022/07/16 11:18:59;;;;;;;2.40;0.97;;;;;;;;;;5046244;28;20420;-76
2022/07/16 11:21:26;;;;;;;1.10;0.80;;;;;;;;;;5050603;28;20424;-77
2022/07/16 11:23:56;;;;;;;3.60;1.23;;;;;;;;;;5051764;28;20462;-77
2022/07/16 11:26:22;;;;;;;2.10;1.40;;;;;;;;;;5052425;28;20409;-76
2022/07/16 11:28:59;;;;;;;2.13;1.20;;;;;;;;;;5052608;28;20412;-77
2022/07/16 11:31:25;;;;;;;2.37;1.17;;;;;;;;;;5050730;28;20513;-77
2022/07/16 11:33:52;;;;;;;2.70;1.00;;;;;;;;;;5052310;28;20490;-78
2022/07/16 11:36:19;;;;;;;1.10;1.00;;;;;;;;;;5052988;28;20409;-78
2022/07/16 11:38:45;;;;;;;1.30;0.80;;;;;;;;;;5056189;28;20419;-78
2022/07/16 11:41:11;;;;;;;1.60;1.30;;;;;;;;;;5055080;28;20547;-77
2022/07/16 11:43:38;;;;;;;1.27;1.03;;;;;;;;;;5055723;28;21032;-78
2022/07/16 11:46:04;;;;;;;2.77;1.13;;;;;;;;;;5056255;28;20404;-77
2022/07/16 11:48:36;;;;;;;2.83;1.20;;;;;;;;;;5056396;28;20558;-80
2022/07/16 11:51:09;;;;;;;3.83;1.20;;;;;;;;;;5055989;28;20417;-78
2022/07/16 11:53:37;;;;;;;4.17;1.40;;;;;;;;;;5055682;28;20787;-79
2022/07/16 11:56:03;;;;;;;4.23;1.17;;;;;;;;;;5059675;28;20463;-77
2022/07/16 11:58:29;;;;;;;3.80;1.40;;;;;;;;;;5056048;28;20425;-78
2022/07/16 12:00:55;;;;;;;3.27;1.23;;;;;;;;;;5055978;28;20427;-77
2022/07/16 12:03:22;;;;;;;1.97;1.37;;;;;;;;;;5055355;28;20452;-78
2022/07/16 12:05:48;;;;;;;2.83;1.20;;;;;;;;;;5055741;28;20781;-78
2022/07/16 12:08:14;;;;;;;1.60;1.03;;;;;;;;;;5055613;28;20508;-78
2022/07/16 12:10:40;;;;;;;4.70;1.43;;;;;;;;;;5055677;28;20424;-78
2022/07/16 12:13:07;;;;;;;7.33;2.33;;;;;;;;;;5054065;28;20432;-79
2022/07/16 12:15:53;;;;;;;5.50;1.57;;;;;;;;;;5055562;28;20892;-78
2022/07/16 12:18:19;;;;;;;5.03;1.30;;;;;;;;;;5054138;28;20420;-78
2022/07/16 12:20:45;;;;;;;2.67;1.20;;;;;;;;;;5055565;28;20462;-77
2022/07/16 12:23:13;;;;;;;2.40;1.20;;;;;;;;;;5055409;28;21002;-78
2022/07/16 12:25:44;;;;;;;4.47;1.30;;;;;;;;;;5055329;28;20869;-77
2022/07/16 12:28:10;;;;;;;2.13;1.10;;;;;;;;;;5056576;28;20470;-77
2022/07/16 12:30:41;;;;;;;4.90;1.23;;;;;;;;;;5055108;28;20420;-77
2022/07/16 12:33:09;;;;;;;2.70;1.17;;;;;;;;;;5054024;28;20436;-77
2022/07/16 12:35:38;;;;;;;3.63;1.10;;;;;;;;;;5055438;28;20412;-75
2022/07/16 12:38:04;;;;;;;2.40;1.37;;;;;;;;;;5053752;28;20451;-75
2022/07/16 12:40:31;;;;;;;2.77;1.63;;;;;;;;;;5055113;28;20404;-75
2022/07/16 12:42:58;;;;;;;4.20;1.20;;;;;;;;;;5054720;28;20428;-75
2022/07/16 12:45:24;;;;;;;2.30;1.40;;;;;;;;;;5055018;28;20826;-75
2022/07/16 12:47:50;;;;;;;5.03;2.33;;;;;;;;;;5054714;28;20408;-75
2022/07/16 12:50:16;;;;;;;4.50;1.60;;;;;;;;;;5054438;28;20405;-74
2022/07/16 12:52:42;;;;;;;4.30;1.20;;;;;;;;;;5054459;28;20448;-75
2022/07/16 13:00:37;;;;;;;9.67;7.30;;;;;;;;;;5051981;28;20829;-75
2022/07/16 13:03:04;;;;;;;4.07;2.23;;;;;;;;;;5053948;28;20491;-74
2022/07/16 13:05:30;;;;;;;4.13;1.40;;;;;;;;;;5054272;28;20456;-75
2022/07/16 13:07:56;;;;;;;5.03;1.33;;;;;;;;;;5054412;28;20478;-74
2022/07/16 13:10:22;;;;;;;2.80;1.40;;;;;;;;;;5054185;28;20439;-76
2022/07/16 13:12:48;;;;;;;2.70;1.40;;;;;;;;;;5054027;28;20421;-75
2022/07/16 13:15:19;;;;;;;1.83;1.47;;;;;;;;;;5054379;28;20807;-75
2022/07/16 13:17:45;;;;;;;3.00;1.77;;;;;;;;;;5054147;28;20431;-75
2022/07/16 13:20:13;;;;;;;2.43;1.17;;;;;;;;;;5054144;28;20408;-76
2022/07/16 13:22:39;;;;;;;3.00;1.30;;;;;;;;;;5053696;28;20432;-75
2022/07/16 13:25:06;;;;;;;3.43;1.30;;;;;;;;;;5054120;28;20460;-73
2022/07/16 13:27:31;;;;;;;2.50;1.53;;;;;;;;;;5053971;28;20484;-75
2022/07/16 13:29:58;;;;;;;3.53;1.47;;;;;;;;;;5053655;28;20444;-75
2022/07/16 13:32:24;;;;;;;4.90;1.33;;;;;;;;;;5053421;28;20405;-74
2022/07/16 13:34:50;;;;;;;4.60;1.60;;;;;;;;;;5053905;28;20409;-74
2022/07/16 13:37:15;;;;;;;2.33;1.20;;;;;;;;;;5054273;28;20466;-75
2022/07/16 13:39:41;;;;;;;3.87;1.20;;;;;;;;;;5053865;28;20483;-75
2022/07/16 13:42:07;;;;;;;4.57;1.53;;;;;;;;;;5053832;28;20409;-74
2022/07/16 13:44:33;;;;;;;3.30;1.40;;;;;;;;;;5053197;28;20486;-75
2022/07/16 13:46:59;;;;;;;3.17;1.40;;;;;;;;;;5054147;28;20408;-74
2022/07/16 13:49:25;;;;;;;1.60;0.90;;;;;;;;;;5053932;28;20405;-75
2022/07/16 13:51:52;;;;;;;2.13;1.10;;;;;;;;;;5053818;28;20452;-75
2022/07/16 13:54:18;;;;;;;4.17;1.30;;;;;;;;;;5053101;28;20439;-75
2022/07/16 13:56:44;;;;;;;3.03;1.00;;;;;;;;;;5053515;28;20405;-75
2022/07/16 13:59:11;;;;;;;2.83;1.47;;;;;;;;;;5053267;28;20904;-75
2022/07/16 14:01:37;;;;;;;3.70;1.70;;;;;;;;;;5052418;28;20921;-75
2022/07/16 14:04:06;;;;;;;3.63;1.13;;;;;;;;;;5051537;28;20559;-75
2022/07/16 14:06:32;;;;;;;4.77;1.67;;;;;;;;;;5053504;28;20820;-75
2022/07/16 14:08:58;;;;;;;3.00;1.37;;;;;;;;;;5053357;28;20490;-74
2022/07/16 14:11:24;;;;;;;2.40;1.27;;;;;;;;;;5053408;28;20416;-74
2022/07/16 14:13:50;;;;;;;3.23;1.23;;;;;;;;;;5053035;28;20834;-74
2022/07/16 14:16:16;;;;;;;4.53;1.47;;;;;;;;;;5053601;28;20435;-75
2022/07/16 14:18:42;;;;;;;3.67;1.27;;;;;;;;;;5053261;28;20515;-74
2022/07/16 14:21:08;;;;;;;2.77;1.50;;;;;;;;;;5053127;28;20416;-75
2022/07/16 14:23:34;;;;;;;3.80;1.30;;;;;;;;;;5052716;28;20460;-75
2022/07/16 14:26:00;;;;;;;3.03;1.30;;;;;;;;;;5053042;28;20512;-73
2022/07/16 14:28:26;;;;;;;2.73;1.47;;;;;;;;;;5053194;28;20407;-75
2022/07/16 14:30:52;;;;;;;2.60;1.20;;;;;;;;;;5053087;28;20917;-75
2022/07/16 14:33:18;;;;;;;2.67;1.33;;;;;;;;;;5052681;28;20466;-75
2022/07/16 14:35:44;;;;;;;4.57;1.23;;;;;;;;;;5053117;28;20491;-75
2022/07/16 14:38:10;;;;;;;6.47;1.30;;;;;;;;;;5052824;28;20518;-75
2022/07/16 14:40:36;;;;;;;1.53;0.90;;;;;;;;;;5052333;28;20449;-75
2022/07/16 14:43:02;;;;;;;1.90;1.10;;;;;;;;;;5037059;28;20854;-75
2022/07/16 14:45:28;;;;;;;2.70;1.10;;;;;;;;;;5032788;28;20547;-76
2022/07/16 14:47:54;;;;;;;4.33;1.67;;;;;;;;;;5032928;28;20410;-75
2022/07/16 14:50:20;;;;;;;4.83;1.30;;;;;;;;;;5032503;28;20906;-75
2022/07/16 14:52:46;;;;;;;2.80;1.20;;;;;;;;;;5032362;28;20491;-75
2022/07/16 14:55:13;;;;;;;3.93;1.37;;;;;;;;;;5033078;28;21023;-75